sensor_id;sensor_type;location;lat;lon;timestamp;P1;durP1;ratioP1;P2;durP2;ratioP2
4674;SDS011;2351;50.812;12.872;2023-06-04T00:01:27;5.87;;;3.40;;
4674;SDS011;2351;50.812;12.872;2023-06-04T00:03:59;8.97;;;4.00;;
4674;SDS011;2351;50.812;12.872;2023-06-04T00:06:30;12.73;;;4.80;;
4674;SDS011;2351;50.812;12.872;2023-06-04T00:09:02;8.60;;;3.50;;
4674;SDS011;2351;50.812;12.872;2023-06-04T00:11:34;5.20;;;3.23;;
4674;SDS011;2351;50.812;12.872;2023-06-04T00:14:08;5.10;;;3.40;;
4674;SDS011;2351;50.812;12.872;2023-06-04T00:16:39;3.93;;;3.40;;
4674;SDS011;2351;50.812;12.872;2023-06-04T00:19:12;5.63;;;3.13;;
4674;SDS011;2351;50.812;12.872;2023-06-04T00:21:44;10.50;;;3.80;;
4674;SDS011;2351;50.812;12.872;2023-06-04T00:24:16;5.00;;;3.00;;
4674;SDS011;2351;50.812;12.872;2023-06-04T00:26:48;4.50;;;3.20;;
4674;SDS011;2351;50.812;12.872;2023-06-04T00:29:21;6.57;;;3.50;;
4674;SDS011;2351;50.812;12.872;2023-06-04T00:31:53;5.37;;;2.90;;
4674;SDS011;2351;50.812;12.872;2023-06-04T00:34:24;3.70;;;3.13;;
4674;SDS011;2351;50.812;12.872;2023-06-04T00:36:56;4.90;;;3.17;;
4674;SDS011;2351;50.812;12.872;2023-06-04T00:39:28;7.60;;;3.77;;
4674;SDS011;2351;50.812;12.872;2023-06-04T00:42:00;7.40;;;3.20;;
4674;SDS011;2351;50.812;12.872;2023-06-04T00:44:33;6.33;;;3.10;;
4674;SDS011;2351;50.812;12.872;2023-06-04T00:47:06;6.80;;;2.73;;
4674;SDS011;2351;50.812;12.872;2023-06-04T00:49:38;4.43;;;2.90;;
4674;SDS011;2351;50.812;12.872;2023-06-04T00:52:10;11.23;;;4.27;;
4674;SDS011;2351;50.812;12.872;2023-06-04T00:54:45;6.00;;;2.90;;
4674;SDS011;2351;50.812;12.872;2023-06-04T00:57:16;12.13;;;4.03;;
4674;SDS011;2351;50.812;12.872;2023-06-04T00:59:50;6.40;;;3.33;;
4674;SDS011;2351;50.812;12.872;2023-06-04T01:02:22;5.70;;;3.23;;
4674;SDS011;2351;50.812;12.872;2023-06-04T01:04:58;4.17;;;3.20;;
4674;SDS011;2351;50.812;12.872;2023-06-04T01:07:38;5.00;;;3.10;;
4674;SDS011;2351;50.812;12.872;2023-06-04T01:10:15;3.37;;;2.73;;
4674;SDS011;2351;50.812;12.872;2023-06-04T01:12:47;3.97;;;3.20;;
4674;SDS011;2351;50.812;12.872;2023-06-04T01:15:20;6.87;;;3.83;;
4674;SDS011;2351;50.812;12.872;2023-06-04T01:17:52;6.73;;;3.60;;
4674;SDS011;2351;50.812;12.872;2023-06-04T01:20:33;4.70;;;3.07;;
4674;SDS011;2351;50.812;12.872;2023-06-04T01:23:14;4.07;;;3.07;;
4674;SDS011;2351;50.812;12.872;2023-06-04T01:25:57;5.40;;;3.40;;
4674;SDS011;2351;50.812;12.872;2023-06-04T01:28:29;4.37;;;2.90;;
4674;SDS011;2351;50.812;12.872;2023-06-04T01:31:03;3.83;;;2.90;;
4674;SDS011;2351;50.812;12.872;2023-06-04T01:33:37;4.10;;;2.70;;
4674;SDS011;2351;50.812;12.872;2023-06-04T01:36:09;3.87;;;2.60;;
4674;SDS011;2351;50.812;12.872;2023-06-04T01:38:42;5.57;;;3.40;;
4674;SDS011;2351;50.812;12.872;2023-06-04T01:41:14;8.83;;;3.40;;
4674;SDS011;2351;50.812;12.872;2023-06-04T01:43:45;4.77;;;3.37;;
4674;SDS011;2351;50.812;12.872;2023-06-04T01:46:18;5.37;;;3.43;;
4674;SDS011;2351;50.812;12.872;2023-06-04T01:48:50;4.57;;;2.73;;
4674;SDS011;2351;50.812;12.872;2023-06-04T01:51:22;9.50;;;3.50;;
4674;SDS011;2351;50.812;12.872;2023-06-04T01:53:53;6.50;;;3.17;;
4674;SDS011;2351;50.812;12.872;2023-06-04T01:56:25;4.00;;;2.80;;
4674;SDS011;2351;50.812;12.872;2023-06-04T01:58:58;3.67;;;2.90;;
4674;SDS011;2351;50.812;12.872;2023-06-04T02:01:32;5.63;;;1.90;;
4674;SDS011;2351;50.812;12.872;2023-06-04T02:04:04;4.20;;;3.30;;
4674;SDS011;2351;50.812;12.872;2023-06-04T02:06:36;6.40;;;2.90;;
4674;SDS011;2351;50.812;12.872;2023-06-04T02:09:07;5.60;;;2.90;;
4674;SDS011;2351;50.812;12.872;2023-06-04T02:11:39;3.50;;;2.77;;
4674;SDS011;2351;50.812;12.872;2023-06-04T02:14:11;4.00;;;2.90;;
4674;SDS011;2351;50.812;12.872;2023-06-04T02:16:44;5.20;;;3.20;;
4674;SDS011;2351;50.812;12.872;2023-06-04T02:19:19;3.87;;;2.70;;
4674;SDS011;2351;50.812;12.872;2023-06-04T02:21:51;4.77;;;3.10;;
4674;SDS011;2351;50.812;12.872;2023-06-04T02:24:23;4.33;;;2.80;;
4674;SDS011;2351;50.812;12.872;2023-06-04T02:26:54;4.23;;;2.50;;
4674;SDS011;2351;50.812;12.872;2023-06-04T02:29:26;5.00;;;3.20;;
4674;SDS011;2351;50.812;12.872;2023-06-04T02:31:59;7.23;;;2.63;;
4674;SDS011;2351;50.812;12.872;2023-06-04T02:34:31;3.90;;;2.70;;
4674;SDS011;2351;50.812;12.872;2023-06-04T02:37:04;4.87;;;3.00;;
4674;SDS011;2351;50.812;12.872;2023-06-04T02:39:36;7.70;;;2.73;;
4674;SDS011;2351;50.812;12.872;2023-06-04T02:42:08;4.87;;;3.10;;
4674;SDS011;2351;50.812;12.872;2023-06-04T02:44:39;4.37;;;3.20;;
4674;SDS011;2351;50.812;12.872;2023-06-04T02:47:12;3.83;;;2.87;;
4674;SDS011;2351;50.812;12.872;2023-06-04T02:49:44;5.03;;;2.80;;
4674;SDS011;2351;50.812;12.872;2023-06-04T02:52:16;6.40;;;3.20;;
4674;SDS011;2351;50.812;12.872;2023-06-04T02:54:48;5.97;;;3.40;;
4674;SDS011;2351;50.812;12.872;2023-06-04T02:57:20;2.70;;;1.97;;
4674;SDS011;2351;50.812;12.872;2023-06-04T02:59:51;4.23;;;2.77;;
4674;SDS011;2351;50.812;12.872;2023-06-04T03:02:26;5.23;;;2.50;;
4674;SDS011;2351;50.812;12.872;2023-06-04T03:04:58;5.83;;;2.90;;
4674;SDS011;2351;50.812;12.872;2023-06-04T03:07:32;4.33;;;2.60;;
4674;SDS011;2351;50.812;12.872;2023-06-04T03:10:04;5.67;;;2.93;;
4674;SDS011;2351;50.812;12.872;2023-06-04T03:12:37;6.03;;;2.77;;
4674;SDS011;2351;50.812;12.872;2023-06-04T03:15:09;2.83;;;2.40;;
4674;SDS011;2351;50.812;12.872;2023-06-04T03:17:42;5.67;;;2.83;;
4674;SDS011;2351;50.812;12.872;2023-06-04T03:20:14;3.30;;;2.50;;
4674;SDS011;2351;50.812;12.872;2023-06-04T03:22:46;2.37;;;2.17;;
4674;SDS011;2351;50.812;12.872;2023-06-04T03:25:17;5.10;;;2.63;;
4674;SDS011;2351;50.812;12.872;2023-06-04T03:27:49;5.37;;;2.70;;
4674;SDS011;2351;50.812;12.872;2023-06-04T03:30:21;9.60;;;3.00;;
4674;SDS011;2351;50.812;12.872;2023-06-04T03:32:54;2.77;;;2.40;;
4674;SDS011;2351;50.812;12.872;2023-06-04T03:35:25;3.80;;;2.40;;
4674;SDS011;2351;50.812;12.872;2023-06-04T03:37:57;8.37;;;3.50;;
4674;SDS011;2351;50.812;12.872;2023-06-04T03:40:29;5.63;;;3.00;;
4674;SDS011;2351;50.812;12.872;2023-06-04T03:43:01;3.40;;;2.07;;
4674;SDS011;2351;50.812;12.872;2023-06-04T03:45:34;6.83;;;3.70;;
4674;SDS011;2351;50.812;12.872;2023-06-04T03:48:07;5.30;;;3.97;;
4674;SDS011;2351;50.812;12.872;2023-06-04T03:50:38;8.40;;;3.67;;
4674;SDS011;2351;50.812;12.872;2023-06-04T03:53:11;7.53;;;4.40;;
4674;SDS011;2351;50.812;12.872;2023-06-04T03:55:43;9.50;;;4.80;;
4674;SDS011;2351;50.812;12.872;2023-06-04T03:58:14;14.43;;;6.50;;
4674;SDS011;2351;50.812;12.872;2023-06-04T04:00:46;8.50;;;5.30;;
4674;SDS011;2351;50.812;12.872;2023-06-04T04:03:19;5.10;;;3.70;;
4674;SDS011;2351;50.812;12.872;2023-06-04T04:05:51;10.03;;;3.83;;
4674;SDS011;2351;50.812;12.872;2023-06-04T04:08:23;12.93;;;4.00;;
4674;SDS011;2351;50.812;12.872;2023-06-04T04:10:55;4.00;;;3.40;;
4674;SDS011;2351;50.812;12.872;2023-06-04T04:13:27;4.77;;;3.77;;
4674;SDS011;2351;50.812;12.872;2023-06-04T04:15:59;9.00;;;3.77;;
4674;SDS011;2351;50.812;12.872;2023-06-04T04:18:33;6.80;;;3.63;;
4674;SDS011;2351;50.812;12.872;2023-06-04T04:21:06;7.00;;;4.20;;
4674;SDS011;2351;50.812;12.872;2023-06-04T04:23:37;5.93;;;3.73;;
4674;SDS011;2351;50.812;12.872;2023-06-04T04:26:11;4.97;;;4.00;;
4674;SDS011;2351;50.812;12.872;2023-06-04T04:28:47;5.40;;;3.63;;
4674;SDS011;2351;50.812;12.872;2023-06-04T04:31:18;7.63;;;3.60;;
4674;SDS011;2351;50.812;12.872;2023-06-04T04:33:54;8.97;;;4.60;;
4674;SDS011;2351;50.812;12.872;2023-06-04T04:36:26;5.93;;;3.80;;
4674;SDS011;2351;50.812;12.872;2023-06-04T04:38:58;5.33;;;3.50;;
4674;SDS011;2351;50.812;12.872;2023-06-04T04:41:29;8.07;;;3.20;;
4674;SDS011;2351;50.812;12.872;2023-06-04T04:44:03;8.77;;;4.80;;
4674;SDS011;2351;50.812;12.872;2023-06-04T04:46:35;10.10;;;5.60;;
4674;SDS011;2351;50.812;12.872;2023-06-04T04:49:08;9.83;;;5.40;;
4674;SDS011;2351;50.812;12.872;2023-06-04T04:51:40;8.83;;;5.27;;
4674;SDS011;2351;50.812;12.872;2023-06-04T04:54:12;7.37;;;5.40;;
4674;SDS011;2351;50.812;12.872;2023-06-04T04:56:44;4.90;;;4.00;;
4674;SDS011;2351;50.812;12.872;2023-06-04T04:59:15;9.67;;;4.40;;
4674;SDS011;2351;50.812;12.872;2023-06-04T05:01:47;5.60;;;3.73;;
4674;SDS011;2351;50.812;12.872;2023-06-04T05:04:20;8.20;;;3.97;;
4674;SDS011;2351;50.812;12.872;2023-06-04T05:06:52;5.87;;;3.40;;
4674;SDS011;2351;50.812;12.872;2023-06-04T05:09:23;4.10;;;2.80;;
4674;SDS011;2351;50.812;12.872;2023-06-04T05:11:55;3.80;;;2.07;;
4674;SDS011;2351;50.812;12.872;2023-06-04T05:14:27;2.43;;;2.23;;
4674;SDS011;2351;50.812;12.872;2023-06-04T05:16:59;7.57;;;2.50;;
4674;SDS011;2351;50.812;12.872;2023-06-04T05:19:32;2.67;;;2.23;;
4674;SDS011;2351;50.812;12.872;2023-06-04T05:22:04;23.23;;;2.43;;
4674;SDS011;2351;50.812;12.872;2023-06-04T05:24:37;6.50;;;1.90;;
4674;SDS011;2351;50.812;12.872;2023-06-04T05:27:08;2.77;;;2.40;;
4674;SDS011;2351;50.812;12.872;2023-06-04T05:29:40;5.90;;;1.97;;
4674;SDS011;2351;50.812;12.872;2023-06-04T05:32:12;5.00;;;2.07;;
4674;SDS011;2351;50.812;12.872;2023-06-04T05:34:45;2.37;;;1.77;;
4674;SDS011;2351;50.812;12.872;2023-06-04T05:37:17;1.77;;;1.50;;
4674;SDS011;2351;50.812;12.872;2023-06-04T05:39:48;4.43;;;1.83;;
4674;SDS011;2351;50.812;12.872;2023-06-04T05:42:20;2.03;;;1.50;;
4674;SDS011;2351;50.812;12.872;2023-06-04T05:44:52;4.53;;;2.20;;
4674;SDS011;2351;50.812;12.872;2023-06-04T05:47:24;1.90;;;1.50;;
4674;SDS011;2351;50.812;12.872;2023-06-04T05:49:57;7.87;;;2.13;;
4674;SDS011;2351;50.812;12.872;2023-06-04T05:52:28;2.27;;;1.80;;
4674;SDS011;2351;50.812;12.872;2023-06-04T05:55:00;3.43;;;2.10;;
4674;SDS011;2351;50.812;12.872;2023-06-04T05:57:32;2.80;;;1.60;;
4674;SDS011;2351;50.812;12.872;2023-06-04T06:00:04;2.83;;;2.37;;
4674;SDS011;2351;50.812;12.872;2023-06-04T06:02:40;1.50;;;1.40;;
4674;SDS011;2351;50.812;12.872;2023-06-04T06:05:15;3.63;;;1.67;;
4674;SDS011;2351;50.812;12.872;2023-06-04T06:07:47;3.70;;;2.03;;
4674;SDS011;2351;50.812;12.872;2023-06-04T06:10:19;2.80;;;1.77;;
4674;SDS011;2351;50.812;12.872;2023-06-04T06:12:52;7.23;;;1.77;;
4674;SDS011;2351;50.812;12.872;2023-06-04T06:15:24;1.67;;;1.40;;
4674;SDS011;2351;50.812;12.872;2023-06-04T06:17:56;3.07;;;1.27;;
4674;SDS011;2351;50.812;12.872;2023-06-04T06:20:29;3.33;;;1.60;;
4674;SDS011;2351;50.812;12.872;2023-06-04T06:23:05;1.73;;;1.20;;
4674;SDS011;2351;50.812;12.872;2023-06-04T06:25:37;4.37;;;1.77;;
4674;SDS011;2351;50.812;12.872;2023-06-04T06:28:10;13.40;;;1.30;;
4674;SDS011;2351;50.812;12.872;2023-06-04T06:30:42;2.03;;;1.67;;
4674;SDS011;2351;50.812;12.872;2023-06-04T06:33:14;2.07;;;1.60;;
4674;SDS011;2351;50.812;12.872;2023-06-04T06:35:47;1.53;;;1.43;;
4674;SDS011;2351;50.812;12.872;2023-06-04T06:38:19;7.57;;;2.17;;
4674;SDS011;2351;50.812;12.872;2023-06-04T06:40:51;3.90;;;1.87;;
4674;SDS011;2351;50.812;12.872;2023-06-04T06:43:22;1.00;;;0.90;;
4674;SDS011;2351;50.812;12.872;2023-06-04T06:45:54;1.80;;;1.20;;
4674;SDS011;2351;50.812;12.872;2023-06-04T06:48:26;4.10;;;1.30;;
4674;SDS011;2351;50.812;12.872;2023-06-04T06:50:59;2.00;;;0.90;;
4674;SDS011;2351;50.812;12.872;2023-06-04T06:53:31;1.27;;;1.10;;
4674;SDS011;2351;50.812;12.872;2023-06-04T06:56:02;4.13;;;1.43;;
4674;SDS011;2351;50.812;12.872;2023-06-04T07:01:18;5.77;;;2.50;;
4674;SDS011;2351;50.812;12.872;2023-06-04T07:03:49;5.10;;;1.30;;
4674;SDS011;2351;50.812;12.872;2023-06-04T07:06:22;1.10;;;0.90;;
4674;SDS011;2351;50.812;12.872;2023-06-04T07:08:54;2.63;;;1.70;;
4674;SDS011;2351;50.812;12.872;2023-06-04T07:11:26;2.50;;;1.30;;
4674;SDS011;2351;50.812;12.872;2023-06-04T07:13:58;3.23;;;1.30;;
4674;SDS011;2351;50.812;12.872;2023-06-04T07:16:32;1.97;;;1.20;;
4674;SDS011;2351;50.812;12.872;2023-06-04T07:19:03;2.43;;;1.43;;
4674;SDS011;2351;50.812;12.872;2023-06-04T07:21:36;4.87;;;1.50;;
4674;SDS011;2351;50.812;12.872;2023-06-04T07:24:08;4.20;;;1.57;;
4674;SDS011;2351;50.812;12.872;2023-06-04T07:26:40;4.10;;;1.40;;
4674;SDS011;2351;50.812;12.872;2023-06-04T07:29:11;2.30;;;1.30;;
4674;SDS011;2351;50.812;12.872;2023-06-04T07:31:43;1.47;;;1.17;;
4674;SDS011;2351;50.812;12.872;2023-06-04T07:34:15;1.23;;;1.13;;
4674;SDS011;2351;50.812;12.872;2023-06-04T07:36:48;2.50;;;1.63;;
4674;SDS011;2351;50.812;12.872;2023-06-04T07:39:20;2.13;;;1.40;;
4674;SDS011;2351;50.812;12.872;2023-06-04T07:41:52;2.00;;;1.27;;
4674;SDS011;2351;50.812;12.872;2023-06-04T07:44:23;3.63;;;1.37;;
4674;SDS011;2351;50.812;12.872;2023-06-04T07:46:55;9.00;;;1.37;;
4674;SDS011;2351;50.812;12.872;2023-06-04T07:49:27;3.13;;;1.10;;
4674;SDS011;2351;50.812;12.872;2023-06-04T07:52:00;3.50;;;1.47;;
4674;SDS011;2351;50.812;12.872;2023-06-04T07:54:32;2.20;;;1.13;;
4674;SDS011;2351;50.812;12.872;2023-06-04T07:57:03;1.83;;;1.10;;
4674;SDS011;2351;50.812;12.872;2023-06-04T07:59:35;1.50;;;1.40;;
4674;SDS011;2351;50.812;12.872;2023-06-04T08:02:07;2.53;;;1.03;;
4674;SDS011;2351;50.812;12.872;2023-06-04T08:04:39;1.13;;;0.93;;
4674;SDS011;2351;50.812;12.872;2023-06-04T08:07:12;2.03;;;1.27;;
4674;SDS011;2351;50.812;12.872;2023-06-04T08:09:44;1.77;;;1.30;;
4674;SDS011;2351;50.812;12.872;2023-06-04T08:12:16;1.37;;;1.00;;
4674;SDS011;2351;50.812;12.872;2023-06-04T08:14:47;1.50;;;1.20;;
4674;SDS011;2351;50.812;12.872;2023-06-04T08:17:20;1.10;;;0.90;;
4674;SDS011;2351;50.812;12.872;2023-06-04T08:19:52;2.00;;;1.10;;
4674;SDS011;2351;50.812;12.872;2023-06-04T08:22:25;1.33;;;1.23;;
4674;SDS011;2351;50.812;12.872;2023-06-04T08:24:57;1.47;;;1.33;;
4674;SDS011;2351;50.812;12.872;2023-06-04T08:27:29;1.90;;;1.00;;
4674;SDS011;2351;50.812;12.872;2023-06-04T08:30:01;2.43;;;1.27;;
4674;SDS011;2351;50.812;12.872;2023-06-04T08:32:33;1.60;;;1.50;;
4674;SDS011;2351;50.812;12.872;2023-06-04T08:35:05;3.20;;;1.33;;
4674;SDS011;2351;50.812;12.872;2023-06-04T08:37:39;2.80;;;1.30;;
4674;SDS011;2351;50.812;12.872;2023-06-04T08:40:11;1.20;;;1.00;;
4674;SDS011;2351;50.812;12.872;2023-06-04T08:42:43;1.40;;;1.30;;
4674;SDS011;2351;50.812;12.872;2023-06-04T08:45:17;6.13;;;1.60;;
4674;SDS011;2351;50.812;12.872;2023-06-04T08:47:50;1.93;;;1.10;;
4674;SDS011;2351;50.812;12.872;2023-06-04T08:50:22;3.63;;;1.40;;
4674;SDS011;2351;50.812;12.872;2023-06-04T08:52:56;1.67;;;0.90;;
4674;SDS011;2351;50.812;12.872;2023-06-04T08:55:28;1.73;;;1.27;;
4674;SDS011;2351;50.812;12.872;2023-06-04T08:58:01;1.43;;;1.20;;
4674;SDS011;2351;50.812;12.872;2023-06-04T09:00:33;1.57;;;1.07;;
4674;SDS011;2351;50.812;12.872;2023-06-04T09:03:05;3.53;;;0.83;;
4674;SDS011;2351;50.812;12.872;2023-06-04T09:05:37;1.47;;;1.10;;
4674;SDS011;2351;50.812;12.872;2023-06-04T09:08:13;1.37;;;0.87;;
4674;SDS011;2351;50.812;12.872;2023-06-04T09:10:48;1.20;;;1.10;;
4674;SDS011;2351;50.812;12.872;2023-06-04T09:13:22;2.93;;;1.03;;
4674;SDS011;2351;50.812;12.872;2023-06-04T09:15:59;1.90;;;1.03;;
4674;SDS011;2351;50.812;12.872;2023-06-04T09:18:31;1.33;;;1.20;;
4674;SDS011;2351;50.812;12.872;2023-06-04T09:21:04;3.47;;;1.50;;
4674;SDS011;2351;50.812;12.872;2023-06-04T09:23:39;2.43;;;1.43;;
4674;SDS011;2351;50.812;12.872;2023-06-04T09:26:15;1.10;;;0.97;;
4674;SDS011;2351;50.812;12.872;2023-06-04T09:28:47;21.23;;;2.07;;
4674;SDS011;2351;50.812;12.872;2023-06-04T09:31:19;1.57;;;1.40;;
4674;SDS011;2351;50.812;12.872;2023-06-04T09:33:52;1.07;;;1.00;;
4674;SDS011;2351;50.812;12.872;2023-06-04T09:36:29;3.37;;;1.60;;
4674;SDS011;2351;50.812;12.872;2023-06-04T09:39:03;2.30;;;1.67;;
4674;SDS011;2351;50.812;12.872;2023-06-04T09:41:35;4.60;;;1.33;;
4674;SDS011;2351;50.812;12.872;2023-06-04T09:44:07;1.67;;;1.10;;
4674;SDS011;2351;50.812;12.872;2023-06-04T09:46:40;1.87;;;1.00;;
4674;SDS011;2351;50.812;12.872;2023-06-04T09:49:12;3.17;;;1.27;;
4674;SDS011;2351;50.812;12.872;2023-06-04T09:51:47;3.37;;;1.00;;
4674;SDS011;2351;50.812;12.872;2023-06-04T09:54:20;3.20;;;1.10;;
4674;SDS011;2351;50.812;12.872;2023-06-04T09:56:52;4.93;;;2.07;;
4674;SDS011;2351;50.812;12.872;2023-06-04T09:59:24;2.20;;;1.33;;
4674;SDS011;2351;50.812;12.872;2023-06-04T10:01:56;2.30;;;1.70;;
4674;SDS011;2351;50.812;12.872;2023-06-04T10:04:28;4.80;;;1.23;;
4674;SDS011;2351;50.812;12.872;2023-06-04T10:07:00;1.93;;;1.40;;
4674;SDS011;2351;50.812;12.872;2023-06-04T10:09:35;1.40;;;1.30;;
4674;SDS011;2351;50.812;12.872;2023-06-04T10:12:15;1.67;;;1.37;;
4674;SDS011;2351;50.812;12.872;2023-06-04T10:14:49;4.47;;;1.27;;
4674;SDS011;2351;50.812;12.872;2023-06-04T10:17:23;6.37;;;1.67;;
4674;SDS011;2351;50.812;12.872;2023-06-04T10:19:58;2.30;;;1.30;;
4674;SDS011;2351;50.812;12.872;2023-06-04T10:22:35;1.90;;;1.07;;
4674;SDS011;2351;50.812;12.872;2023-06-04T10:25:09;1.97;;;1.20;;
4674;SDS011;2351;50.812;12.872;2023-06-04T10:27:41;0.97;;;0.90;;
4674;SDS011;2351;50.812;12.872;2023-06-04T10:33:40;5.80;;;1.37;;
4674;SDS011;2351;50.812;12.872;2023-06-04T10:36:18;1.97;;;1.10;;
4674;SDS011;2351;50.812;12.872;2023-06-04T10:38:52;5.50;;;1.77;;
4674;SDS011;2351;50.812;12.872;2023-06-04T10:41:27;2.37;;;1.13;;
4674;SDS011;2351;50.812;12.872;2023-06-04T10:44:02;2.07;;;1.67;;
4674;SDS011;2351;50.812;12.872;2023-06-04T10:46:37;1.50;;;1.20;;
4674;SDS011;2351;50.812;12.872;2023-06-04T10:49:10;3.30;;;1.37;;
4674;SDS011;2351;50.812;12.872;2023-06-04T10:51:42;1.30;;;1.20;;
4674;SDS011;2351;50.812;12.872;2023-06-04T10:54:21;2.07;;;1.50;;
4674;SDS011;2351;50.812;12.872;2023-06-04T10:56:55;2.40;;;1.20;;
4674;SDS011;2351;50.812;12.872;2023-06-04T10:59:27;1.20;;;1.10;;
4674;SDS011;2351;50.812;12.872;2023-06-04T11:02:04;2.27;;;1.27;;
4674;SDS011;2351;50.812;12.872;2023-06-04T11:04:37;1.93;;;1.50;;
4674;SDS011;2351;50.812;12.872;2023-06-04T11:07:10;1.20;;;0.73;;
4674;SDS011;2351;50.812;12.872;2023-06-04T11:09:47;2.10;;;1.37;;
4674;SDS011;2351;50.812;12.872;2023-06-04T11:12:21;2.83;;;1.47;;
4674;SDS011;2351;50.812;12.872;2023-06-04T11:14:54;1.73;;;1.17;;
4674;SDS011;2351;50.812;12.872;2023-06-04T11:17:26;2.60;;;1.33;;
4674;SDS011;2351;50.812;12.872;2023-06-04T11:20:00;2.03;;;1.20;;
4674;SDS011;2351;50.812;12.872;2023-06-04T11:22:32;3.03;;;1.10;;
4674;SDS011;2351;50.812;12.872;2023-06-04T11:25:05;1.90;;;0.80;;
4674;SDS011;2351;50.812;12.872;2023-06-04T11:27:39;1.17;;;1.10;;
4674;SDS011;2351;50.812;12.872;2023-06-04T11:30:11;1.20;;;1.00;;
4674;SDS011;2351;50.812;12.872;2023-06-04T11:32:44;0.90;;;0.90;;
4674;SDS011;2351;50.812;12.872;2023-06-04T11:35:16;2.70;;;1.27;;
4674;SDS011;2351;50.812;12.872;2023-06-04T11:37:52;5.40;;;1.50;;
4674;SDS011;2351;50.812;12.872;2023-06-04T11:40:25;4.27;;;1.40;;
4674;SDS011;2351;50.812;12.872;2023-06-04T11:42:59;4.67;;;1.60;;
4674;SDS011;2351;50.812;12.872;2023-06-04T11:45:31;4.87;;;1.50;;
4674;SDS011;2351;50.812;12.872;2023-06-04T11:48:04;1.77;;;1.30;;
4674;SDS011;2351;50.812;12.872;2023-06-04T11:54:03;1.97;;;1.30;;
4674;SDS011;2351;50.812;12.872;2023-06-04T11:56:35;3.30;;;1.10;;
4674;SDS011;2351;50.812;12.872;2023-06-04T11:59:09;1.33;;;1.00;;
4674;SDS011;2351;50.812;12.872;2023-06-04T12:01:43;2.27;;;1.20;;
4674;SDS011;2351;50.812;12.872;2023-06-04T12:04:17;1.60;;;1.30;;
4674;SDS011;2351;50.812;12.872;2023-06-04T12:06:53;1.20;;;1.10;;
4674;SDS011;2351;50.812;12.872;2023-06-04T12:09:27;1.07;;;0.97;;
4674;SDS011;2351;50.812;12.872;2023-06-04T12:12:03;4.40;;;1.33;;
4674;SDS011;2351;50.812;12.872;2023-06-04T12:14:38;1.27;;;1.20;;
4674;SDS011;2351;50.812;12.872;2023-06-04T12:17:10;8.53;;;1.63;;
4674;SDS011;2351;50.812;12.872;2023-06-04T12:19:46;2.77;;;1.40;;
4674;SDS011;2351;50.812;12.872;2023-06-04T12:22:19;2.80;;;1.40;;
4674;SDS011;2351;50.812;12.872;2023-06-04T12:35:12;1.50;;;1.33;;
4674;SDS011;2351;50.812;12.872;2023-06-04T12:37:45;2.43;;;1.30;;
4674;SDS011;2351;50.812;12.872;2023-06-04T12:40:18;1.57;;;1.10;;
4674;SDS011;2351;50.812;12.872;2023-06-04T12:42:50;4.93;;;1.33;;
4674;SDS011;2351;50.812;12.872;2023-06-04T12:45:22;1.63;;;1.00;;
4674;SDS011;2351;50.812;12.872;2023-06-04T12:47:53;1.30;;;1.20;;
4674;SDS011;2351;50.812;12.872;2023-06-04T12:57:19;1.67;;;0.80;;
4674;SDS011;2351;50.812;12.872;2023-06-04T13:10:19;2.73;;;1.30;;
4674;SDS011;2351;50.812;12.872;2023-06-04T13:12:52;1.10;;;1.00;;
4674;SDS011;2351;50.812;12.872;2023-06-04T13:15:24;4.47;;;1.20;;
4674;SDS011;2351;50.812;12.872;2023-06-04T13:17:57;1.90;;;1.17;;
4674;SDS011;2351;50.812;12.872;2023-06-04T13:20:29;5.17;;;1.20;;
4674;SDS011;2351;50.812;12.872;2023-06-04T13:23:01;3.47;;;1.13;;
4674;SDS011;2351;50.812;12.872;2023-06-04T13:25:33;2.10;;;1.50;;
4674;SDS011;2351;50.812;12.872;2023-06-04T13:28:06;3.03;;;0.97;;
4674;SDS011;2351;50.812;12.872;2023-06-04T13:30:39;3.90;;;1.37;;
4674;SDS011;2351;50.812;12.872;2023-06-04T13:33:10;4.10;;;1.93;;
4674;SDS011;2351;50.812;12.872;2023-06-04T13:35:42;1.60;;;1.47;;
4674;SDS011;2351;50.812;12.872;2023-06-04T13:38:15;4.50;;;1.30;;
4674;SDS011;2351;50.812;12.872;2023-06-04T13:40:47;2.90;;;0.93;;
4674;SDS011;2351;50.812;12.872;2023-06-04T13:43:20;1.20;;;1.10;;
4674;SDS011;2351;50.812;12.872;2023-06-04T13:45:53;1.30;;;1.20;;
4674;SDS011;2351;50.812;12.872;2023-06-04T13:48:24;0.90;;;0.80;;
4674;SDS011;2351;50.812;12.872;2023-06-04T13:50:56;1.00;;;0.90;;
4674;SDS011;2351;50.812;12.872;2023-06-04T13:53:37;0.97;;;0.77;;
4674;SDS011;2351;50.812;12.872;2023-06-04T14:06:31;1.23;;;1.07;;
4674;SDS011;2351;50.812;12.872;2023-06-04T14:09:03;1.50;;;1.20;;
4674;SDS011;2351;50.812;12.872;2023-06-04T14:11:37;2.23;;;1.10;;
4674;SDS011;2351;50.812;12.872;2023-06-04T14:14:10;2.53;;;1.20;;
4674;SDS011;2351;50.812;12.872;2023-06-04T14:16:44;2.40;;;1.10;;
4674;SDS011;2351;50.812;12.872;2023-06-04T14:19:15;1.00;;;1.00;;
4674;SDS011;2351;50.812;12.872;2023-06-04T14:21:49;5.63;;;1.23;;
4674;SDS011;2351;50.812;12.872;2023-06-04T14:24:20;2.30;;;1.20;;
4674;SDS011;2351;50.812;12.872;2023-06-04T14:26:52;2.30;;;1.03;;
4674;SDS011;2351;50.812;12.872;2023-06-04T14:29:24;1.33;;;1.07;;
4674;SDS011;2351;50.812;12.872;2023-06-04T14:31:55;0.87;;;0.80;;
4674;SDS011;2351;50.812;12.872;2023-06-04T14:34:27;2.27;;;1.40;;
4674;SDS011;2351;50.812;12.872;2023-06-04T14:37:03;1.20;;;1.10;;
4674;SDS011;2351;50.812;12.872;2023-06-04T14:39:35;5.80;;;1.40;;
4674;SDS011;2351;50.812;12.872;2023-06-04T14:42:07;1.50;;;1.30;;
4674;SDS011;2351;50.812;12.872;2023-06-04T14:48:05;2.63;;;1.13;;
4674;SDS011;2351;50.812;12.872;2023-06-04T14:50:37;1.77;;;1.20;;
4674;SDS011;2351;50.812;12.872;2023-06-04T14:53:10;3.33;;;1.20;;
4674;SDS011;2351;50.812;12.872;2023-06-04T14:55:42;1.70;;;1.10;;
4674;SDS011;2351;50.812;12.872;2023-06-04T14:58:14;1.17;;;1.07;;
4674;SDS011;2351;50.812;12.872;2023-06-04T15:00:47;3.60;;;1.10;;
4674;SDS011;2351;50.812;12.872;2023-06-04T15:03:19;1.33;;;1.00;;
4674;SDS011;2351;50.812;12.872;2023-06-04T15:05:50;1.00;;;0.80;;
4674;SDS011;2351;50.812;12.872;2023-06-04T15:08:24;1.80;;;1.00;;
4674;SDS011;2351;50.812;12.872;2023-06-04T15:10:55;1.77;;;1.20;;
4674;SDS011;2351;50.812;12.872;2023-06-04T15:13:27;1.20;;;1.10;;
4674;SDS011;2351;50.812;12.872;2023-06-04T15:19:24;1.80;;;1.17;;
4674;SDS011;2351;50.812;12.872;2023-06-04T15:21:55;2.77;;;1.50;;
4674;SDS011;2351;50.812;12.872;2023-06-04T15:24:28;1.87;;;1.50;;
4674;SDS011;2351;50.812;12.872;2023-06-04T15:27:01;1.00;;;0.80;;
4674;SDS011;2351;50.812;12.872;2023-06-04T15:29:33;1.07;;;0.93;;
4674;SDS011;2351;50.812;12.872;2023-06-04T15:32:05;1.47;;;1.13;;
4674;SDS011;2351;50.812;12.872;2023-06-04T15:34:37;1.17;;;1.00;;
4674;SDS011;2351;50.812;12.872;2023-06-04T15:37:08;0.83;;;0.83;;
4674;SDS011;2351;50.812;12.872;2023-06-04T15:39:42;1.10;;;1.00;;
4674;SDS011;2351;50.812;12.872;2023-06-04T15:42:13;2.40;;;1.10;;
4674;SDS011;2351;50.812;12.872;2023-06-04T15:44:45;1.10;;;0.83;;
4674;SDS011;2351;50.812;12.872;2023-06-04T15:47:17;1.40;;;1.30;;
4674;SDS011;2351;50.812;12.872;2023-06-04T15:49:49;2.53;;;1.23;;
4674;SDS011;2351;50.812;12.872;2023-06-04T15:52:21;1.63;;;1.10;;
4674;SDS011;2351;50.812;12.872;2023-06-04T15:54:54;1.77;;;1.00;;
4674;SDS011;2351;50.812;12.872;2023-06-04T15:57:25;1.67;;;1.20;;
4674;SDS011;2351;50.812;12.872;2023-06-04T15:59:57;1.00;;;0.77;;
4674;SDS011;2351;50.812;12.872;2023-06-04T16:02:29;6.67;;;1.40;;
4674;SDS011;2351;50.812;12.872;2023-06-04T16:05:03;0.87;;;0.87;;
4674;SDS011;2351;50.812;12.872;2023-06-04T16:07:55;1.53;;;1.10;;
4674;SDS011;2351;50.812;12.872;2023-06-04T16:10:29;1.10;;;1.00;;
4674;SDS011;2351;50.812;12.872;2023-06-04T16:16:29;2.40;;;1.83;;
4674;SDS011;2351;50.812;12.872;2023-06-04T16:19:07;3.83;;;1.20;;
4674;SDS011;2351;50.812;12.872;2023-06-04T16:21:41;2.40;;;1.10;;
4674;SDS011;2351;50.812;12.872;2023-06-04T16:24:13;2.40;;;1.10;;
4674;SDS011;2351;50.812;12.872;2023-06-04T16:26:47;2.00;;;1.43;;
4674;SDS011;2351;50.812;12.872;2023-06-04T16:29:19;1.83;;;1.43;;
4674;SDS011;2351;50.812;12.872;2023-06-04T16:39:03;3.73;;;1.30;;